sensor_id;sensor_type;location;lat;lon;timestamp;P1;durP1;ratioP1;P2;durP2;ratioP2
70576;SDS011;58138;43.138;24.702;2023-09-08T00:00:40;6.78;;;4.75;;
70576;SDS011;58138;43.138;24.702;2023-09-08T00:03:06;9.65;;;4.75;;
70576;SDS011;58138;43.138;24.702;2023-09-08T00:05:31;8.00;;;4.90;;
70576;SDS011;58138;43.138;24.702;2023-09-08T00:10:32;9.98;;;4.95;;
70576;SDS011;58138;43.138;24.702;2023-09-08T00:12:57;12.40;;;4.60;;
70576;SDS011;58138;43.138;24.702;2023-09-08T00:15:23;9.45;;;4.55;;
70576;SDS011;58138;43.138;24.702;2023-09-08T00:17:49;10.52;;;4.93;;
70576;SDS011;58138;43.138;24.702;2023-09-08T00:20:14;11.00;;;5.25;;
70576;SDS011;58138;43.138;24.702;2023-09-08T00:22:40;9.88;;;5.15;;
70576;SDS011;58138;43.138;24.702;2023-09-08T00:25:06;9.20;;;5.70;;
70576;SDS011;58138;43.138;24.702;2023-09-08T00:27:31;10.05;;;5.43;;
70576;SDS011;58138;43.138;24.702;2023-09-08T00:29:57;8.75;;;5.10;;
70576;SDS011;58138;43.138;24.702;2023-09-08T00:32:23;10.85;;;5.30;;
70576;SDS011;58138;43.138;24.702;2023-09-08T00:34:48;6.38;;;4.15;;
70576;SDS011;58138;43.138;24.702;2023-09-08T00:37:14;8.13;;;5.40;;
70576;SDS011;58138;43.138;24.702;2023-09-08T00:39:39;9.32;;;5.10;;
70576;SDS011;58138;43.138;24.702;2023-09-08T00:42:05;8.00;;;5.30;;
70576;SDS011;58138;43.138;24.702;2023-09-08T00:44:32;11.73;;;5.82;;
70576;SDS011;58138;43.138;24.702;2023-09-08T00:46:57;10.90;;;5.68;;
70576;SDS011;58138;43.138;24.702;2023-09-08T00:49:23;8.30;;;6.22;;
70576;SDS011;58138;43.138;24.702;2023-09-08T00:52:06;10.98;;;5.38;;
70576;SDS011;58138;43.138;24.702;2023-09-08T00:55:01;7.90;;;5.50;;
70576;SDS011;58138;43.138;24.702;2023-09-08T00:57:27;12.80;;;6.30;;
70576;SDS011;58138;43.138;24.702;2023-09-08T00:59:53;13.93;;;6.35;;
70576;SDS011;58138;43.138;24.702;2023-09-08T01:02:18;9.18;;;5.45;;
70576;SDS011;58138;43.138;24.702;2023-09-08T01:04:44;8.75;;;5.30;;
70576;SDS011;58138;43.138;24.702;2023-09-08T01:07:10;14.23;;;5.90;;
70576;SDS011;58138;43.138;24.702;2023-09-08T01:09:36;8.25;;;5.78;;
70576;SDS011;58138;43.138;24.702;2023-09-08T01:12:05;9.18;;;5.45;;
70576;SDS011;58138;43.138;24.702;2023-09-08T01:14:32;10.27;;;5.68;;
70576;SDS011;58138;43.138;24.702;2023-09-08T01:16:57;10.18;;;5.47;;
70576;SDS011;58138;43.138;24.702;2023-09-08T01:19:23;9.15;;;5.72;;
70576;SDS011;58138;43.138;24.702;2023-09-08T01:27:12;10.60;;;6.07;;
70576;SDS011;58138;43.138;24.702;2023-09-08T01:29:37;7.82;;;5.43;;
70576;SDS011;58138;43.138;24.702;2023-09-08T01:32:03;7.57;;;5.80;;
70576;SDS011;58138;43.138;24.702;2023-09-08T01:34:29;7.93;;;5.68;;
70576;SDS011;58138;43.138;24.702;2023-09-08T01:36:55;9.65;;;5.50;;
70576;SDS011;58138;43.138;24.702;2023-09-08T01:39:22;8.15;;;5.03;;
70576;SDS011;58138;43.138;24.702;2023-09-08T01:41:47;17.23;;;6.25;;
70576;SDS011;58138;43.138;24.702;2023-09-08T01:44:12;7.70;;;5.50;;
70576;SDS011;58138;43.138;24.702;2023-09-08T01:46:38;7.70;;;5.70;;
70576;SDS011;58138;43.138;24.702;2023-09-08T01:49:06;11.98;;;5.97;;
70576;SDS011;58138;43.138;24.702;2023-09-08T01:51:31;10.90;;;5.80;;
70576;SDS011;58138;43.138;24.702;2023-09-08T01:53:56;11.00;;;5.78;;
70576;SDS011;58138;43.138;24.702;2023-09-08T01:56:22;10.77;;;5.95;;
70576;SDS011;58138;43.138;24.702;2023-09-08T01:58:51;7.43;;;5.53;;
70576;SDS011;58138;43.138;24.702;2023-09-08T02:01:40;7.75;;;5.80;;
70576;SDS011;58138;43.138;24.702;2023-09-08T02:04:05;9.30;;;5.47;;
70576;SDS011;58138;43.138;24.702;2023-09-08T02:06:31;10.82;;;5.45;;
70576;SDS011;58138;43.138;24.702;2023-09-08T02:08:56;10.52;;;5.18;;
70576;SDS011;58138;43.138;24.702;2023-09-08T02:11:22;9.30;;;5.40;;
70576;SDS011;58138;43.138;24.702;2023-09-08T02:13:47;6.05;;;5.13;;
70576;SDS011;58138;43.138;24.702;2023-09-08T02:16:16;10.02;;;5.40;;
70576;SDS011;58138;43.138;24.702;2023-09-08T02:18:42;8.98;;;5.63;;
70576;SDS011;58138;43.138;24.702;2023-09-08T02:21:08;6.28;;;5.20;;
70576;SDS011;58138;43.138;24.702;2023-09-08T02:23:33;9.60;;;5.63;;
70576;SDS011;58138;43.138;24.702;2023-09-08T02:25:59;8.25;;;5.10;;
70576;SDS011;58138;43.138;24.702;2023-09-08T02:28:24;9.40;;;6.03;;
70576;SDS011;58138;43.138;24.702;2023-09-08T02:30:50;15.73;;;5.57;;
70576;SDS011;58138;43.138;24.702;2023-09-08T02:33:15;11.73;;;5.75;;
70576;SDS011;58138;43.138;24.702;2023-09-08T02:35:41;10.25;;;5.47;;
70576;SDS011;58138;43.138;24.702;2023-09-08T02:38:06;8.02;;;5.68;;
70576;SDS011;58138;43.138;24.702;2023-09-08T02:40:32;9.27;;;5.50;;
70576;SDS011;58138;43.138;24.702;2023-09-08T02:43:02;13.35;;;5.30;;
70576;SDS011;58138;43.138;24.702;2023-09-08T02:45:28;8.68;;;5.05;;
70576;SDS011;58138;43.138;24.702;2023-09-08T02:47:53;9.93;;;5.50;;
70576;SDS011;58138;43.138;24.702;2023-09-08T02:50:19;10.15;;;5.80;;
70576;SDS011;58138;43.138;24.702;2023-09-08T02:52:45;8.50;;;5.70;;
70576;SDS011;58138;43.138;24.702;2023-09-08T02:55:11;8.80;;;5.72;;
70576;SDS011;58138;43.138;24.702;2023-09-08T02:57:37;9.50;;;5.60;;
70576;SDS011;58138;43.138;24.702;2023-09-08T03:00:03;9.10;;;6.10;;
70576;SDS011;58138;43.138;24.702;2023-09-08T03:02:30;8.77;;;5.22;;
70576;SDS011;58138;43.138;24.702;2023-09-08T03:04:55;11.90;;;5.93;;
70576;SDS011;58138;43.138;24.702;2023-09-08T03:07:21;8.93;;;5.43;;
70576;SDS011;58138;43.138;24.702;2023-09-08T03:09:47;9.40;;;5.38;;
70576;SDS011;58138;43.138;24.702;2023-09-08T03:12:12;11.07;;;5.43;;
70576;SDS011;58138;43.138;24.702;2023-09-08T03:14:38;6.07;;;4.82;;
70576;SDS011;58138;43.138;24.702;2023-09-08T03:17:03;8.10;;;6.47;;
70576;SDS011;58138;43.138;24.702;2023-09-08T03:19:29;33.42;;;7.80;;
70576;SDS011;58138;43.138;24.702;2023-09-08T03:21:55;10.82;;;6.40;;
70576;SDS011;58138;43.138;24.702;2023-09-08T03:24:20;10.32;;;6.40;;
70576;SDS011;58138;43.138;24.702;2023-09-08T03:26:46;9.80;;;6.43;;
70576;SDS011;58138;43.138;24.702;2023-09-08T03:29:11;14.50;;;8.25;;
70576;SDS011;58138;43.138;24.702;2023-09-08T03:31:37;9.18;;;6.20;;
70576;SDS011;58138;43.138;24.702;2023-09-08T03:34:02;11.70;;;6.47;;
70576;SDS011;58138;43.138;24.702;2023-09-08T03:36:28;11.50;;;7.10;;
70576;SDS011;58138;43.138;24.702;2023-09-08T03:38:53;11.57;;;6.03;;
70576;SDS011;58138;43.138;24.702;2023-09-08T03:41:18;15.88;;;9.25;;
70576;SDS011;58138;43.138;24.702;2023-09-08T03:43:44;12.93;;;6.82;;
70576;SDS011;58138;43.138;24.702;2023-09-08T03:46:09;18.00;;;7.15;;
70576;SDS011;58138;43.138;24.702;2023-09-08T03:48:35;17.73;;;8.23;;
70576;SDS011;58138;43.138;24.702;2023-09-08T03:51:00;8.02;;;6.35;;
70576;SDS011;58138;43.138;24.702;2023-09-08T03:53:26;11.82;;;6.20;;
70576;SDS011;58138;43.138;24.702;2023-09-08T03:55:51;13.30;;;7.50;;
70576;SDS011;58138;43.138;24.702;2023-09-08T03:58:17;17.85;;;7.18;;
70576;SDS011;58138;43.138;24.702;2023-09-08T04:00:42;14.18;;;5.95;;
70576;SDS011;58138;43.138;24.702;2023-09-08T04:03:08;14.75;;;8.30;;
70576;SDS011;58138;43.138;24.702;2023-09-08T04:05:33;13.18;;;6.40;;
70576;SDS011;58138;43.138;24.702;2023-09-08T04:07:59;12.70;;;7.55;;
70576;SDS011;58138;43.138;24.702;2023-09-08T04:10:24;13.02;;;5.78;;
70576;SDS011;58138;43.138;24.702;2023-09-08T04:12:50;13.38;;;6.45;;
70576;SDS011;58138;43.138;24.702;2023-09-08T04:15:16;9.98;;;7.30;;
70576;SDS011;58138;43.138;24.702;2023-09-08T04:17:41;8.98;;;6.88;;
70576;SDS011;58138;43.138;24.702;2023-09-08T04:20:07;12.38;;;6.75;;
70576;SDS011;58138;43.138;24.702;2023-09-08T04:22:34;8.10;;;6.15;;
70576;SDS011;58138;43.138;24.702;2023-09-08T04:24:59;13.43;;;7.10;;
70576;SDS011;58138;43.138;24.702;2023-09-08T04:27:25;14.05;;;8.00;;
70576;SDS011;58138;43.138;24.702;2023-09-08T04:29:51;12.25;;;7.15;;
70576;SDS011;58138;43.138;24.702;2023-09-08T04:32:16;13.73;;;9.18;;
70576;SDS011;58138;43.138;24.702;2023-09-08T04:34:42;8.95;;;6.22;;
70576;SDS011;58138;43.138;24.702;2023-09-08T04:37:08;10.55;;;6.65;;
70576;SDS011;58138;43.138;24.702;2023-09-08T04:39:34;12.82;;;7.50;;
70576;SDS011;58138;43.138;24.702;2023-09-08T04:42:00;15.90;;;9.48;;
70576;SDS011;58138;43.138;24.702;2023-09-08T04:44:26;11.38;;;7.75;;
70576;SDS011;58138;43.138;24.702;2023-09-08T04:46:52;8.00;;;5.47;;
70576;SDS011;58138;43.138;24.702;2023-09-08T04:49:19;11.55;;;6.68;;
70576;SDS011;58138;43.138;24.702;2023-09-08T04:51:44;10.20;;;6.70;;
70576;SDS011;58138;43.138;24.702;2023-09-08T04:54:10;14.98;;;6.55;;
70576;SDS011;58138;43.138;24.702;2023-09-08T04:56:36;8.15;;;6.45;;
70576;SDS011;58138;43.138;24.702;2023-09-08T04:59:01;10.43;;;6.57;;
70576;SDS011;58138;43.138;24.702;2023-09-08T05:01:27;10.52;;;6.35;;
70576;SDS011;58138;43.138;24.702;2023-09-08T05:03:55;15.93;;;6.68;;
70576;SDS011;58138;43.138;24.702;2023-09-08T05:06:20;12.68;;;6.53;;
70576;SDS011;58138;43.138;24.702;2023-09-08T05:08:46;8.48;;;6.15;;
70576;SDS011;58138;43.138;24.702;2023-09-08T05:11:11;11.98;;;6.20;;
70576;SDS011;58138;43.138;24.702;2023-09-08T05:13:36;11.23;;;6.22;;
70576;SDS011;58138;43.138;24.702;2023-09-08T05:16:02;10.27;;;6.38;;
70576;SDS011;58138;43.138;24.702;2023-09-08T05:18:36;9.23;;;6.32;;
70576;SDS011;58138;43.138;24.702;2023-09-08T05:21:05;9.65;;;6.22;;
70576;SDS011;58138;43.138;24.702;2023-09-08T05:23:31;8.80;;;6.35;;
70576;SDS011;58138;43.138;24.702;2023-09-08T05:25:57;12.57;;;6.18;;
70576;SDS011;58138;43.138;24.702;2023-09-08T05:28:22;16.10;;;7.63;;
70576;SDS011;58138;43.138;24.702;2023-09-08T05:30:50;11.60;;;6.45;;
70576;SDS011;58138;43.138;24.702;2023-09-08T05:33:16;36.05;;;7.43;;
70576;SDS011;58138;43.138;24.702;2023-09-08T05:35:42;26.10;;;6.57;;
70576;SDS011;58138;43.138;24.702;2023-09-08T05:38:07;14.73;;;5.80;;
70576;SDS011;58138;43.138;24.702;2023-09-08T05:40:34;18.25;;;6.20;;
70576;SDS011;58138;43.138;24.702;2023-09-08T05:42:59;41.42;;;8.15;;
70576;SDS011;58138;43.138;24.702;2023-09-08T05:45:25;13.43;;;6.03;;
70576;SDS011;58138;43.138;24.702;2023-09-08T05:47:51;17.75;;;5.88;;
70576;SDS011;58138;43.138;24.702;2023-09-08T05:50:17;9.35;;;5.38;;
70576;SDS011;58138;43.138;24.702;2023-09-08T05:52:42;11.25;;;5.82;;
70576;SDS011;58138;43.138;24.702;2023-09-08T05:55:08;11.45;;;5.85;;
70576;SDS011;58138;43.138;24.702;2023-09-08T05:57:34;8.95;;;5.47;;
70576;SDS011;58138;43.138;24.702;2023-09-08T06:00:00;12.85;;;5.88;;
70576;SDS011;58138;43.138;24.702;2023-09-08T06:02:26;9.25;;;5.22;;
70576;SDS011;58138;43.138;24.702;2023-09-08T06:04:51;8.38;;;5.38;;
70576;SDS011;58138;43.138;24.702;2023-09-08T06:07:17;9.05;;;5.45;;
70576;SDS011;58138;43.138;24.702;2023-09-08T06:09:42;9.85;;;5.60;;
70576;SDS011;58138;43.138;24.702;2023-09-08T06:12:08;12.07;;;5.88;;
70576;SDS011;58138;43.138;24.702;2023-09-08T06:14:33;11.00;;;5.70;;
70576;SDS011;58138;43.138;24.702;2023-09-08T06:16:59;11.93;;;5.07;;
70576;SDS011;58138;43.138;24.702;2023-09-08T06:19:24;12.05;;;5.60;;
70576;SDS011;58138;43.138;24.702;2023-09-08T06:21:50;10.40;;;5.20;;
70576;SDS011;58138;43.138;24.702;2023-09-08T06:24:15;11.90;;;5.15;;
70576;SDS011;58138;43.138;24.702;2023-09-08T06:26:40;14.90;;;5.55;;
70576;SDS011;58138;43.138;24.702;2023-09-08T06:29:07;14.93;;;5.10;;
70576;SDS011;58138;43.138;24.702;2023-09-08T06:31:33;9.32;;;4.97;;
70576;SDS011;58138;43.138;24.702;2023-09-08T06:33:58;16.52;;;5.20;;
70576;SDS011;58138;43.138;24.702;2023-09-08T06:36:24;23.00;;;14.10;;
70576;SDS011;58138;43.138;24.702;2023-09-08T06:38:49;19.38;;;13.30;;
70576;SDS011;58138;43.138;24.702;2023-09-08T06:41:15;13.93;;;6.20;;
70576;SDS011;58138;43.138;24.702;2023-09-08T06:43:40;16.42;;;5.90;;
70576;SDS011;58138;43.138;24.702;2023-09-08T06:46:07;12.20;;;4.57;;
70576;SDS011;58138;43.138;24.702;2023-09-08T06:48:33;11.82;;;4.65;;
70576;SDS011;58138;43.138;24.702;2023-09-08T06:50:58;12.23;;;4.97;;
70576;SDS011;58138;43.138;24.702;2023-09-08T06:53:24;10.73;;;4.93;;
70576;SDS011;58138;43.138;24.702;2023-09-08T06:55:49;5.30;;;3.75;;
70576;SDS011;58138;43.138;24.702;2023-09-08T06:58:15;7.43;;;4.32;;
70576;SDS011;58138;43.138;24.702;2023-09-08T07:00:41;7.82;;;4.30;;
70576;SDS011;58138;43.138;24.702;2023-09-08T07:03:06;6.00;;;4.40;;
70576;SDS011;58138;43.138;24.702;2023-09-08T07:05:33;8.90;;;4.25;;
70576;SDS011;58138;43.138;24.702;2023-09-08T07:08:05;9.20;;;4.38;;
70576;SDS011;58138;43.138;24.702;2023-09-08T07:10:33;7.13;;;4.30;;
70576;SDS011;58138;43.138;24.702;2023-09-08T07:12:59;7.78;;;4.35;;
70576;SDS011;58138;43.138;24.702;2023-09-08T07:15:24;11.63;;;4.50;;
70576;SDS011;58138;43.138;24.702;2023-09-08T07:17:49;8.45;;;4.47;;
70576;SDS011;58138;43.138;24.702;2023-09-08T07:20:15;9.27;;;4.80;;
70576;SDS011;58138;43.138;24.702;2023-09-08T07:22:41;13.20;;;4.80;;
70576;SDS011;58138;43.138;24.702;2023-09-08T07:25:06;12.88;;;5.20;;
70576;SDS011;58138;43.138;24.702;2023-09-08T07:27:33;11.02;;;4.97;;
70576;SDS011;58138;43.138;24.702;2023-09-08T07:29:58;9.30;;;4.80;;
70576;SDS011;58138;43.138;24.702;2023-09-08T07:32:24;10.98;;;4.90;;
70576;SDS011;58138;43.138;24.702;2023-09-08T07:34:49;6.38;;;4.55;;
70576;SDS011;58138;43.138;24.702;2023-09-08T07:37:20;12.68;;;4.57;;
70576;SDS011;58138;43.138;24.702;2023-09-08T07:39:47;9.95;;;4.68;;
70576;SDS011;58138;43.138;24.702;2023-09-08T07:42:13;9.05;;;4.50;;
70576;SDS011;58138;43.138;24.702;2023-09-08T07:44:38;8.10;;;4.30;;
70576;SDS011;58138;43.138;24.702;2023-09-08T07:47:04;10.15;;;4.55;;
70576;SDS011;58138;43.138;24.702;2023-09-08T07:49:29;6.88;;;4.30;;
70576;SDS011;58138;43.138;24.702;2023-09-08T07:51:55;6.75;;;4.45;;
70576;SDS011;58138;43.138;24.702;2023-09-08T07:54:20;9.45;;;5.50;;
70576;SDS011;58138;43.138;24.702;2023-09-08T07:56:46;8.65;;;4.40;;
70576;SDS011;58138;43.138;24.702;2023-09-08T07:59:12;9.48;;;4.25;;
70576;SDS011;58138;43.138;24.702;2023-09-08T08:01:37;18.05;;;12.13;;
70576;SDS011;58138;43.138;24.702;2023-09-08T08:04:03;12.45;;;4.40;;
70576;SDS011;58138;43.138;24.702;2023-09-08T08:06:29;22.83;;;5.95;;
70576;SDS011;58138;43.138;24.702;2023-09-08T08:08:55;11.32;;;4.53;;
70576;SDS011;58138;43.138;24.702;2023-09-08T08:11:21;10.13;;;3.92;;
70576;SDS011;58138;43.138;24.702;2023-09-08T08:13:46;9.50;;;4.07;;
70576;SDS011;58138;43.138;24.702;2023-09-08T08:16:12;8.15;;;3.90;;
70576;SDS011;58138;43.138;24.702;2023-09-08T08:18:37;7.72;;;3.63;;
70576;SDS011;58138;43.138;24.702;2023-09-08T08:21:03;6.95;;;3.85;;
70576;SDS011;58138;43.138;24.702;2023-09-08T08:23:29;10.20;;;4.05;;
70576;SDS011;58138;43.138;24.702;2023-09-08T08:25:55;11.57;;;4.57;;
70576;SDS011;58138;43.138;24.702;2023-09-08T08:28:21;14.40;;;4.20;;
70576;SDS011;58138;43.138;24.702;2023-09-08T08:30:47;4.85;;;3.40;;
70576;SDS011;58138;43.138;24.702;2023-09-08T08:33:13;8.32;;;3.80;;
70576;SDS011;58138;43.138;24.702;2023-09-08T08:35:39;9.45;;;3.83;;
70576;SDS011;58138;43.138;24.702;2023-09-08T08:38:05;7.03;;;3.60;;
70576;SDS011;58138;43.138;24.702;2023-09-08T08:40:31;7.35;;;3.70;;
70576;SDS011;58138;43.138;24.702;2023-09-08T08:42:57;7.93;;;3.40;;
70576;SDS011;58138;43.138;24.702;2023-09-08T08:45:24;10.25;;;4.18;;
70576;SDS011;58138;43.138;24.702;2023-09-08T08:47:50;9.80;;;3.92;;
70576;SDS011;58138;43.138;24.702;2023-09-08T08:50:16;6.65;;;4.00;;
70576;SDS011;58138;43.138;24.702;2023-09-08T08:52:42;8.40;;;3.97;;
70576;SDS011;58138;43.138;24.702;2023-09-08T08:55:09;11.52;;;4.30;;
70576;SDS011;58138;43.138;24.702;2023-09-08T08:57:38;7.88;;;4.00;;
70576;SDS011;58138;43.138;24.702;2023-09-08T09:00:07;11.35;;;3.70;;
70576;SDS011;58138;43.138;24.702;2023-09-08T09:02:36;7.55;;;3.63;;
70576;SDS011;58138;43.138;24.702;2023-09-08T09:05:04;6.50;;;3.20;;
70576;SDS011;58138;43.138;24.702;2023-09-08T09:07:31;7.05;;;3.42;;
70576;SDS011;58138;43.138;24.702;2023-09-08T09:09:57;10.55;;;3.60;;
70576;SDS011;58138;43.138;24.702;2023-09-08T09:12:23;10.75;;;3.58;;
70576;SDS011;58138;43.138;24.702;2023-09-08T09:14:52;7.22;;;3.28;;
70576;SDS011;58138;43.138;24.702;2023-09-08T09:17:18;8.77;;;3.70;;
70576;SDS011;58138;43.138;24.702;2023-09-08T09:19:44;6.45;;;3.33;;
70576;SDS011;58138;43.138;24.702;2023-09-08T09:22:09;9.98;;;3.40;;
70576;SDS011;58138;43.138;24.702;2023-09-08T09:24:41;8.40;;;3.50;;
70576;SDS011;58138;43.138;24.702;2023-09-08T09:27:09;5.65;;;3.28;;
70576;SDS011;58138;43.138;24.702;2023-09-08T09:29:43;8.90;;;4.00;;
70576;SDS011;58138;43.138;24.702;2023-09-08T09:32:11;9.13;;;3.10;;
70576;SDS011;58138;43.138;24.702;2023-09-08T09:34:40;7.97;;;3.40;;
70576;SDS011;58138;43.138;24.702;2023-09-08T09:37:13;5.05;;;3.28;;
70576;SDS011;58138;43.138;24.702;2023-09-08T09:39:38;6.35;;;3.15;;
70576;SDS011;58138;43.138;24.702;2023-09-08T09:42:04;4.50;;;3.28;;
70576;SDS011;58138;43.138;24.702;2023-09-08T09:44:29;5.55;;;2.80;;
70576;SDS011;58138;43.138;24.702;2023-09-08T09:46:55;5.80;;;2.90;;
70576;SDS011;58138;43.138;24.702;2023-09-08T09:49:20;4.70;;;3.13;;
70576;SDS011;58138;43.138;24.702;2023-09-08T09:51:47;8.68;;;3.42;;
70576;SDS011;58138;43.138;24.702;2023-09-08T09:54:13;8.90;;;3.30;;
70576;SDS011;58138;43.138;24.702;2023-09-08T09:56:40;3.95;;;3.28;;
70576;SDS011;58138;43.138;24.702;2023-09-08T09:59:09;7.78;;;3.50;;
70576;SDS011;58138;43.138;24.702;2023-09-08T10:01:36;12.00;;;3.50;;
70576;SDS011;58138;43.138;24.702;2023-09-08T10:04:03;5.55;;;3.13;;
70576;SDS011;58138;43.138;24.702;2023-09-08T10:06:35;3.20;;;2.90;;
70576;SDS011;58138;43.138;24.702;2023-09-08T10:09:02;6.10;;;3.17;;
70576;SDS011;58138;43.138;24.702;2023-09-08T10:11:33;7.85;;;3.60;;
70576;SDS011;58138;43.138;24.702;2023-09-08T10:14:04;5.78;;;3.13;;
70576;SDS011;58138;43.138;24.702;2023-09-08T10:16:34;7.00;;;3.08;;
70576;SDS011;58138;43.138;24.702;2023-09-08T10:19:00;5.72;;;3.58;;
70576;SDS011;58138;43.138;24.702;2023-09-08T10:21:26;8.75;;;3.20;;
70576;SDS011;58138;43.138;24.702;2023-09-08T10:26:50;10.25;;;3.40;;
70576;SDS011;58138;43.138;24.702;2023-09-08T10:29:18;8.37;;;2.90;;
70576;SDS011;58138;43.138;24.702;2023-09-08T10:31:44;9.93;;;3.70;;
70576;SDS011;58138;43.138;24.702;2023-09-08T10:34:10;9.77;;;3.38;;
70576;SDS011;58138;43.138;24.702;2023-09-08T10:36:35;8.60;;;3.38;;
70576;SDS011;58138;43.138;24.702;2023-09-08T10:44:44;8.63;;;3.23;;
70576;SDS011;58138;43.138;24.702;2023-09-08T10:47:24;4.55;;;3.00;;
70576;SDS011;58138;43.138;24.702;2023-09-08T10:49:51;7.95;;;3.10;;
70576;SDS011;58138;43.138;24.702;2023-09-08T10:52:22;4.70;;;3.30;;
70576;SDS011;58138;43.138;24.702;2023-09-08T10:54:49;5.13;;;3.40;;
70576;SDS011;58138;43.138;24.702;2023-09-08T10:57:16;5.32;;;3.50;;
70576;SDS011;58138;43.138;24.702;2023-09-08T11:05:03;4.65;;;3.25;;
70576;SDS011;58138;43.138;24.702;2023-09-08T11:07:32;8.77;;;3.30;;
70576;SDS011;58138;43.138;24.702;2023-09-08T11:10:01;8.48;;;3.45;;
70576;SDS011;58138;43.138;24.702;2023-09-08T11:12:28;10.73;;;4.20;;
70576;SDS011;58138;43.138;24.702;2023-09-08T11:14:54;7.60;;;3.60;;
70576;SDS011;58138;43.138;24.702;2023-09-08T11:17:24;7.35;;;4.57;;
70576;SDS011;58138;43.138;24.702;2023-09-08T11:19:50;8.40;;;3.40;;
70576;SDS011;58138;43.138;24.702;2023-09-08T11:22:16;8.93;;;3.40;;
70576;SDS011;58138;43.138;24.702;2023-09-08T11:24:43;9.13;;;3.60;;
70576;SDS011;58138;43.138;24.702;2023-09-08T11:27:09;6.95;;;2.90;;
70576;SDS011;58138;43.138;24.702;2023-09-08T11:29:38;6.88;;;2.97;;
70576;SDS011;58138;43.138;24.702;2023-09-08T11:32:06;6.55;;;3.10;;
70576;SDS011;58138;43.138;24.702;2023-09-08T11:34:33;8.07;;;3.30;;
70576;SDS011;58138;43.138;24.702;2023-09-08T11:36:59;6.18;;;3.00;;
70576;SDS011;58138;43.138;24.702;2023-09-08T11:39:25;9.07;;;3.40;;
70576;SDS011;58138;43.138;24.702;2023-09-08T11:41:50;7.57;;;3.40;;
70576;SDS011;58138;43.138;24.702;2023-09-08T11:44:17;9.38;;;3.47;;
70576;SDS011;58138;43.138;24.702;2023-09-08T11:46:43;6.47;;;3.25;;
70576;SDS011;58138;43.138;24.702;2023-09-08T11:49:09;7.18;;;3.15;;
70576;SDS011;58138;43.138;24.702;2023-09-08T11:51:35;6.25;;;3.22;;
70576;SDS011;58138;43.138;24.702;2023-09-08T11:54:01;6.85;;;2.90;;
70576;SDS011;58138;43.138;24.702;2023-09-08T11:56:27;5.47;;;2.80;;
70576;SDS011;58138;43.138;24.702;2023-09-08T11:58:53;3.13;;;2.83;;
70576;SDS011;58138;43.138;24.702;2023-09-08T12:01:18;6.72;;;3.20;;
70576;SDS011;58138;43.138;24.702;2023-09-08T12:03:51;8.30;;;2.97;;
70576;SDS011;58138;43.138;24.702;2023-09-08T12:06:18;5.68;;;3.05;;
70576;SDS011;58138;43.138;24.702;2023-09-08T12:08:44;3.80;;;2.72;;
70576;SDS011;58138;43.138;24.702;2023-09-08T12:11:10;5.85;;;3.05;;
70576;SDS011;58138;43.138;24.702;2023-09-08T12:13:37;6.80;;;2.90;;
70576;SDS011;58138;43.138;24.702;2023-09-08T12:16:02;4.75;;;2.75;;
70576;SDS011;58138;43.138;24.702;2023-09-08T12:18:45;7.45;;;3.45;;
70576;SDS011;58138;43.138;24.702;2023-09-08T12:21:11;9.98;;;3.33;;
70576;SDS011;58138;43.138;24.702;2023-09-08T12:23:49;8.85;;;3.13;;
70576;SDS011;58138;43.138;24.702;2023-09-08T12:26:15;3.97;;;2.90;;
70576;SDS011;58138;43.138;24.702;2023-09-08T12:28:41;7.70;;;3.40;;
70576;SDS011;58138;43.138;24.702;2023-09-08T12:31:07;6.47;;;2.83;;
70576;SDS011;58138;43.138;24.702;2023-09-08T12:33:34;9.00;;;4.40;;
70576;SDS011;58138;43.138;24.702;2023-09-08T12:36:01;11.20;;;3.50;;
70576;SDS011;58138;43.138;24.702;2023-09-08T12:38:37;6.03;;;3.22;;
70576;SDS011;58138;43.138;24.702;2023-09-08T12:41:03;5.40;;;3.33;;
70576;SDS011;58138;43.138;24.702;2023-09-08T12:43:28;9.65;;;3.22;;
70576;SDS011;58138;43.138;24.702;2023-09-08T12:45:55;18.10;;;7.13;;
70576;SDS011;58138;43.138;24.702;2023-09-08T12:48:21;9.73;;;4.38;;
70576;SDS011;58138;43.138;24.702;2023-09-08T12:50:47;9.80;;;3.40;;
70576;SDS011;58138;43.138;24.702;2023-09-08T12:53:15;8.63;;;3.33;;
70576;SDS011;58138;43.138;24.702;2023-09-08T12:55:45;11.85;;;3.20;;
70576;SDS011;58138;43.138;24.702;2023-09-08T12:58:10;12.98;;;3.42;;
70576;SDS011;58138;43.138;24.702;2023-09-08T13:00:36;4.70;;;3.45;;
70576;SDS011;58138;43.138;24.702;2023-09-08T13:03:01;13.35;;;3.42;;
70576;SDS011;58138;43.138;24.702;2023-09-08T13:05:27;8.80;;;3.50;;
70576;SDS011;58138;43.138;24.702;2023-09-08T13:07:53;13.77;;;3.75;;
70576;SDS011;58138;43.138;24.702;2023-09-08T13:10:18;11.20;;;3.30;;
70576;SDS011;58138;43.138;24.702;2023-09-08T13:12:45;6.65;;;3.33;;
70576;SDS011;58138;43.138;24.702;2023-09-08T13:15:11;7.78;;;3.67;;
70576;SDS011;58138;43.138;24.702;2023-09-08T13:17:36;7.90;;;3.67;;
70576;SDS011;58138;43.138;24.702;2023-09-08T13:20:02;8.43;;;4.05;;
70576;SDS011;58138;43.138;24.702;2023-09-08T13:22:28;12.00;;;5.55;;
70576;SDS011;58138;43.138;24.702;2023-09-08T13:24:53;11.15;;;4.93;;
70576;SDS011;58138;43.138;24.702;2023-09-08T13:27:20;11.48;;;4.20;;
70576;SDS011;58138;43.138;24.702;2023-09-08T13:29:45;10.05;;;3.38;;
70576;SDS011;58138;43.138;24.702;2023-09-08T13:32:11;8.02;;;3.95;;
70576;SDS011;58138;43.138;24.702;2023-09-08T13:34:36;7.93;;;3.20;;
70576;SDS011;58138;43.138;24.702;2023-09-08T13:37:03;7.80;;;3.40;;
70576;SDS011;58138;43.138;24.702;2023-09-08T13:39:29;10.35;;;3.50;;
70576;SDS011;58138;43.138;24.702;2023-09-08T13:41:55;14.30;;;6.30;;
70576;SDS011;58138;43.138;24.702;2023-09-08T13:44:22;5.75;;;3.05;;
70576;SDS011;58138;43.138;24.702;2023-09-08T13:46:48;9.57;;;3.30;;
70576;SDS011;58138;43.138;24.702;2023-09-08T13:49:15;5.85;;;2.80;;
70576;SDS011;58138;43.138;24.702;2023-09-08T13:51:41;9.60;;;3.20;;
70576;SDS011;58138;43.138;24.702;2023-09-08T13:54:07;6.38;;;3.08;;
70576;SDS011;58138;43.138;24.702;2023-09-08T13:56:33;7.55;;;3.40;;
70576;SDS011;58138;43.138;24.702;2023-09-08T13:58:59;7.03;;;3.00;;
70576;SDS011;58138;43.138;24.702;2023-09-08T14:01:25;10.30;;;3.30;;
70576;SDS011;58138;43.138;24.702;2023-09-08T14:03:53;7.55;;;3.20;;
70576;SDS011;58138;43.138;24.702;2023-09-08T14:06:18;10.75;;;3.20;;
70576;SDS011;58138;43.138;24.702;2023-09-08T14:08:44;8.35;;;3.13;;
70576;SDS011;58138;43.138;24.702;2023-09-08T14:11:09;10.38;;;3.90;;
70576;SDS011;58138;43.138;24.702;2023-09-08T14:13:35;7.95;;;3.45;;
70576;SDS011;58138;43.138;24.702;2023-09-08T14:16:00;11.38;;;3.30;;
70576;SDS011;58138;43.138;24.702;2023-09-08T14:18:26;4.78;;;3.25;;
70576;SDS011;58138;43.138;24.702;2023-09-08T14:20:51;9.35;;;3.40;;
70576;SDS011;58138;43.138;24.702;2023-09-08T14:23:17;12.38;;;3.58;;
70576;SDS011;58138;43.138;24.702;2023-09-08T14:25:42;9.77;;;4.65;;
70576;SDS011;58138;43.138;24.702;2023-09-08T14:28:08;8.98;;;3.35;;
70576;SDS011;58138;43.138;24.702;2023-09-08T14:30:34;14.15;;;3.20;;
70576;SDS011;58138;43.138;24.702;2023-09-08T14:33:00;15.13;;;3.63;;
70576;SDS011;58138;43.138;24.702;2023-09-08T14:35:25;7.53;;;3.38;;
70576;SDS011;58138;43.138;24.702;2023-09-08T14:37:51;8.95;;;3.45;;
70576;SDS011;58138;43.138;24.702;2023-09-08T14:40:16;7.38;;;3.10;;
70576;SDS011;58138;43.138;24.702;2023-09-08T14:42:42;8.10;;;3.00;;
70576;SDS011;58138;43.138;24.702;2023-09-08T14:45:07;9.48;;;3.03;;